<?xml version="1.0" encoding="UTF-8" standalone="no" ?>
<gpx xmlns="http://www.topografix.com/GPX/1/1" xmlns:xsi="http://www.w3.org/2001/XMLSchema-instance" xsi:schemaLocation="http://www.topografix.com/GPX/1/1 http://www.topografix.com/GPX/1/1/gpx.xsd" version="1.1" creator="VisuGPX - https://www.visugpx.com">
  <metadata>
    <name>#RCM/ Rando_Reine_Archers</name>
    <desc><![CDATA[Randonnée au départ du Parking du Bois Rond, le 17/09/2023 RCM]]></desc>
  </metadata>
  <trk>
    <name><![CDATA[rando  Reine-Archers PK Bois Rond-17345357]]></name>
    <extensions>
      <line xmlns="http://www.topografix.com/GPX/gpx_style/0/2">
        <color>ff0000</color>
        <width>4</width>
      </line>
    </extensions>
    <trkseg>
      <trkpt lat="48.38624" lon="2.56411">
        <ele>78.1</ele>
        <time>2023-08-03T21:25:48Z</time>
      </trkpt>
      <trkpt lat="48.38507" lon="2.5645">
        <ele>91</ele>
        <time>2023-08-03T21:23:08Z</time>
      </trkpt>
      <trkpt lat="48.38456" lon="2.56531">
        <ele>96</ele>
        <time>2023-08-03T21:21:29Z</time>
      </trkpt>
      <trkpt lat="48.3837" lon="2.56686">
        <ele>104</ele>
        <time>2023-08-03T21:18:30Z</time>
      </trkpt>
      <trkpt lat="48.38256" lon="2.56917">
        <ele>114</ele>
        <time>2023-08-03T21:14:15Z</time>
      </trkpt>
      <trkpt lat="48.38262" lon="2.57037">
        <ele>114</ele>
        <time>2023-08-03T21:12:28Z</time>
      </trkpt>
      <trkpt lat="48.38222" lon="2.57128">
        <ele>117</ele>
        <time>2023-08-03T21:10:52Z</time>
      </trkpt>
      <trkpt lat="48.38228" lon="2.57462">
        <ele>122</ele>
        <time>2023-08-03T21:05:56Z</time>
      </trkpt>
      <trkpt lat="48.38191" lon="2.57557">
        <ele>123</ele>
        <time>2023-08-03T21:04:18Z</time>
      </trkpt>
      <trkpt lat="48.38205" lon="2.57643">
        <ele>122</ele>
        <time>2023-08-03T21:02:59Z</time>
      </trkpt>
      <trkpt lat="48.38111" lon="2.58205">
        <ele>124</ele>
        <time>2023-08-03T20:54:26Z</time>
      </trkpt>
      <trkpt lat="48.38142" lon="2.58235">
        <ele>123</ele>
        <time>2023-08-03T20:53:37Z</time>
      </trkpt>
      <trkpt lat="48.38213" lon="2.58166">
        <ele>116</ele>
        <time>2023-08-03T20:51:44Z</time>
      </trkpt>
      <trkpt lat="48.38253" lon="2.58175">
        <ele>111</ele>
        <time>2023-08-03T20:50:50Z</time>
      </trkpt>
      <trkpt lat="48.38402" lon="2.58089">
        <ele>99</ele>
        <time>2023-08-03T20:47:17Z</time>
      </trkpt>
      <trkpt lat="48.3847" lon="2.58012">
        <ele>102</ele>
        <time>2023-08-03T20:45:23Z</time>
      </trkpt>
      <trkpt lat="48.3861" lon="2.57994">
        <ele>115</ele>
        <time>2023-08-03T20:42:16Z</time>
      </trkpt>
      <trkpt lat="48.38581" lon="2.58055">
        <ele>112</ele>
        <time>2023-08-03T20:41:09Z</time>
      </trkpt>
      <trkpt lat="48.38487" lon="2.58797">
        <ele>104</ele>
        <time>2023-08-03T20:30:00Z</time>
      </trkpt>
      <trkpt lat="48.38356" lon="2.58758">
        <ele>103</ele>
        <time>2023-08-03T20:27:02Z</time>
      </trkpt>
      <trkpt lat="48.38302" lon="2.58861">
        <ele>109</ele>
        <time>2023-08-03T20:25:05Z</time>
      </trkpt>
      <trkpt lat="48.38285" lon="2.58943">
        <ele>114</ele>
        <time>2023-08-03T20:23:49Z</time>
      </trkpt>
      <trkpt lat="48.3823" lon="2.59033">
        <ele>120</ele>
        <time>2023-08-03T20:22:01Z</time>
      </trkpt>
      <trkpt lat="48.3823" lon="2.59205">
        <ele>126</ele>
        <time>2023-08-03T20:19:28Z</time>
      </trkpt>
      <trkpt lat="48.38148" lon="2.59522">
        <ele>129</ele>
        <time>2023-08-03T20:14:27Z</time>
      </trkpt>
      <trkpt lat="48.38071" lon="2.5963">
        <ele>127</ele>
        <time>2023-08-03T20:12:07Z</time>
      </trkpt>
      <trkpt lat="48.37991" lon="2.59605">
        <ele>128</ele>
        <time>2023-08-03T20:10:17Z</time>
      </trkpt>
      <trkpt lat="48.37838" lon="2.59853">
        <ele>128</ele>
        <time>2023-08-03T20:05:17Z</time>
      </trkpt>
      <trkpt lat="48.38133" lon="2.61091">
        <ele>133</ele>
        <time>2023-08-03T19:45:52Z</time>
      </trkpt>
      <trkpt lat="48.38571" lon="2.60766">
        <ele>131</ele>
        <time>2023-08-03T19:35:00Z</time>
      </trkpt>
      <trkpt lat="48.3865" lon="2.61285">
        <ele>134</ele>
        <time>2023-08-03T19:27:08Z</time>
      </trkpt>
      <trkpt lat="48.38746" lon="2.6153">
        <ele>134</ele>
        <time>2023-08-03T19:22:56Z</time>
      </trkpt>
      <trkpt lat="48.38787" lon="2.61597">
        <ele>125</ele>
      </trkpt>
      <trkpt lat="48.38922" lon="2.61722">
        <ele>131</ele>
        <time>2023-08-03T19:18:06Z</time>
      </trkpt>
      <trkpt lat="48.38972" lon="2.61825">
        <ele>131</ele>
        <time>2023-08-03T19:16:13Z</time>
      </trkpt>
      <trkpt lat="48.38995" lon="2.61951">
        <ele>130</ele>
        <time>2023-08-03T19:14:17Z</time>
      </trkpt>
      <trkpt lat="48.39046" lon="2.62091">
        <ele>128</ele>
        <time>2023-08-03T19:11:56Z</time>
      </trkpt>
      <trkpt lat="48.39119" lon="2.61814">
        <ele>126</ele>
        <time>2023-08-03T19:07:32Z</time>
      </trkpt>
      <trkpt lat="48.39093" lon="2.61586">
        <ele>119</ele>
        <time>2023-08-03T19:04:07Z</time>
      </trkpt>
      <trkpt lat="48.39116" lon="2.61516">
        <ele>119</ele>
        <time>2023-08-03T19:02:57Z</time>
      </trkpt>
      <trkpt lat="48.39169" lon="2.61487">
        <ele>115</ele>
        <time>2023-08-03T19:01:42Z</time>
      </trkpt>
      <trkpt lat="48.39242" lon="2.61486">
        <ele>110</ele>
        <time>2023-08-03T19:00:05Z</time>
      </trkpt>
      <trkpt lat="48.39271" lon="2.6153">
        <ele>112</ele>
        <time>2023-08-03T18:59:10Z</time>
      </trkpt>
      <trkpt lat="48.39345" lon="2.609">
        <ele>102</ele>
        <time>2023-08-03T18:49:43Z</time>
      </trkpt>
      <trkpt lat="48.39402" lon="2.60913">
        <ele>108</ele>
        <time>2023-08-03T18:48:26Z</time>
      </trkpt>
      <trkpt lat="48.39459" lon="2.61024">
        <ele>123</ele>
        <time>2023-08-03T18:46:22Z</time>
      </trkpt>
      <trkpt lat="48.39502" lon="2.61003">
        <ele>128</ele>
        <time>2023-08-03T18:45:21Z</time>
      </trkpt>
      <trkpt lat="48.39576" lon="2.6099">
        <ele>127</ele>
        <time>2023-08-03T18:43:42Z</time>
      </trkpt>
      <trkpt lat="48.39613" lon="2.6105">
        <ele>128</ele>
        <time>2023-08-03T18:42:29Z</time>
      </trkpt>
      <trkpt lat="48.39667" lon="2.60981">
        <ele>127</ele>
        <time>2023-08-03T18:40:55Z</time>
      </trkpt>
      <trkpt lat="48.39694" lon="2.60818">
        <ele>115</ele>
      </trkpt>
      <trkpt lat="48.3969" lon="2.6075">
        <ele>124</ele>
        <time>2023-08-03T18:37:28Z</time>
      </trkpt>
      <trkpt lat="48.39671" lon="2.60625">
        <ele>113.9</ele>
      </trkpt>
      <trkpt lat="48.39684" lon="2.60509">
        <ele>122</ele>
        <time>2023-08-03T18:33:54Z</time>
      </trkpt>
      <trkpt lat="48.3971" lon="2.60428">
        <ele>112.5</ele>
      </trkpt>
      <trkpt lat="48.39761" lon="2.60363">
        <ele>118</ele>
        <time>2023-08-03T18:31:09Z</time>
      </trkpt>
      <trkpt lat="48.39792" lon="2.60241">
        <ele>118</ele>
        <time>2023-08-03T18:29:13Z</time>
      </trkpt>
      <trkpt lat="48.39864" lon="2.60407">
        <ele>121</ele>
        <time>2023-08-03T18:26:18Z</time>
      </trkpt>
      <trkpt lat="48.39969" lon="2.60455">
        <ele>121</ele>
        <time>2023-08-03T18:23:51Z</time>
      </trkpt>
      <trkpt lat="48.40005" lon="2.60316">
        <ele>118.2</ele>
        <time>2023-08-03T18:21:27Z</time>
      </trkpt>
      <trkpt lat="48.40042" lon="2.60292">
        <ele>120</ele>
      </trkpt>
      <trkpt lat="48.40109" lon="2.60254">
        <ele>124</ele>
      </trkpt>
      <trkpt lat="48.40187" lon="2.60241">
        <ele>124.7</ele>
      </trkpt>
      <trkpt lat="48.4023" lon="2.60201">
        <ele>130</ele>
        <time>2023-08-03T18:16:12Z</time>
      </trkpt>
      <trkpt lat="48.40222" lon="2.60075">
        <ele>130</ele>
        <time>2023-08-03T18:14:20Z</time>
      </trkpt>
      <trkpt lat="48.4025" lon="2.59891">
        <ele>117.1</ele>
      </trkpt>
      <trkpt lat="48.40243" lon="2.59816">
        <ele>115.1</ele>
      </trkpt>
      <trkpt lat="48.40266" lon="2.59727">
        <ele>122</ele>
        <time>2023-08-03T18:09:06Z</time>
      </trkpt>
      <trkpt lat="48.40287" lon="2.59373">
        <ele>108</ele>
        <time>2023-08-03T18:03:51Z</time>
      </trkpt>
      <trkpt lat="48.40269" lon="2.59294">
        <ele>103</ele>
        <time>2023-08-03T18:02:37Z</time>
      </trkpt>
      <trkpt lat="48.4016" lon="2.59364">
        <ele>121</ele>
        <time>2023-08-03T17:59:59Z</time>
      </trkpt>
      <trkpt lat="48.40136" lon="2.59211">
        <ele>114</ele>
        <time>2023-08-03T17:57:39Z</time>
      </trkpt>
      <trkpt lat="48.40118" lon="2.59308">
        <ele>123</ele>
        <time>2023-08-03T17:56:10Z</time>
      </trkpt>
      <trkpt lat="48.40121" lon="2.59388">
        <ele>125</ele>
        <time>2023-08-03T17:54:59Z</time>
      </trkpt>
      <trkpt lat="48.40091" lon="2.59402">
        <ele>128</ele>
        <time>2023-08-03T17:54:17Z</time>
      </trkpt>
      <trkpt lat="48.40027" lon="2.59479">
        <ele>124</ele>
        <time>2023-08-03T17:52:28Z</time>
      </trkpt>
      <trkpt lat="48.3994" lon="2.59508">
        <ele>119</ele>
        <time>2023-08-03T17:50:29Z</time>
      </trkpt>
      <trkpt lat="48.39889" lon="2.5946">
        <ele>120</ele>
        <time>2023-08-03T17:49:09Z</time>
      </trkpt>
      <trkpt lat="48.39821" lon="2.59437">
        <ele>121</ele>
        <time>2023-08-03T17:47:36Z</time>
      </trkpt>
      <trkpt lat="48.39763" lon="2.59378">
        <ele>118</ele>
        <time>2023-08-03T17:46:02Z</time>
      </trkpt>
      <trkpt lat="48.39692" lon="2.59349">
        <ele>102</ele>
        <time>2023-08-03T17:44:24Z</time>
      </trkpt>
      <trkpt lat="48.39596" lon="2.59284">
        <ele>88</ele>
        <time>2023-08-03T17:42:04Z</time>
      </trkpt>
      <trkpt lat="48.39362" lon="2.59162">
        <ele>100</ele>
        <time>2023-08-03T17:36:33Z</time>
      </trkpt>
      <trkpt lat="48.39399" lon="2.58956">
        <ele>101</ele>
        <time>2023-08-03T17:33:24Z</time>
      </trkpt>
      <trkpt lat="48.39413" lon="2.58872">
        <ele>92.7</ele>
      </trkpt>
      <trkpt lat="48.39386" lon="2.58782">
        <ele>93.9</ele>
        <time>2023-08-03T17:30:33Z</time>
      </trkpt>
      <trkpt lat="48.39308" lon="2.58668">
        <ele>97</ele>
        <time>2023-08-03T17:28:06Z</time>
      </trkpt>
      <trkpt lat="48.39413" lon="2.58338">
        <ele>85</ele>
        <time>2023-08-03T17:22:41Z</time>
      </trkpt>
      <trkpt lat="48.39182" lon="2.58183">
        <ele>92</ele>
        <time>2023-08-03T17:17:04Z</time>
      </trkpt>
      <trkpt lat="48.39123" lon="2.58149">
        <ele>96.9</ele>
      </trkpt>
      <trkpt lat="48.39131" lon="2.58089">
        <ele>100</ele>
      </trkpt>
      <trkpt lat="48.39091" lon="2.58041">
        <ele>108.2</ele>
      </trkpt>
      <trkpt lat="48.39051" lon="2.58067">
        <ele>118</ele>
        <time>2023-08-03T17:13:41Z</time>
      </trkpt>
      <trkpt lat="48.39034" lon="2.58012">
        <ele>119</ele>
        <time>2023-08-03T17:12:47Z</time>
      </trkpt>
      <trkpt lat="48.39046" lon="2.57943">
        <ele>118</ele>
        <time>2023-08-03T17:11:44Z</time>
      </trkpt>
      <trkpt lat="48.39009" lon="2.5787">
        <ele>122</ele>
        <time>2023-08-03T17:10:23Z</time>
      </trkpt>
      <trkpt lat="48.39023" lon="2.57823">
        <ele>121</ele>
        <time>2023-08-03T17:09:37Z</time>
      </trkpt>
      <trkpt lat="48.38997" lon="2.57797">
        <ele>123</ele>
        <time>2023-08-03T17:08:55Z</time>
      </trkpt>
      <trkpt lat="48.39046" lon="2.57613">
        <ele>121</ele>
        <time>2023-08-03T17:06:00Z</time>
      </trkpt>
      <trkpt lat="48.39043" lon="2.57518">
        <ele>119</ele>
        <time>2023-08-03T17:04:35Z</time>
      </trkpt>
      <trkpt lat="48.39023" lon="2.57421">
        <ele>120.3</ele>
        <time>2023-08-03T17:03:00Z</time>
      </trkpt>
      <trkpt lat="48.39053" lon="2.57314">
        <ele>121</ele>
      </trkpt>
      <trkpt lat="48.39046" lon="2.57284">
        <ele>118.5</ele>
      </trkpt>
      <trkpt lat="48.39066" lon="2.57226">
        <ele>118.7</ele>
      </trkpt>
      <trkpt lat="48.39079" lon="2.57211">
        <ele>120.2</ele>
        <time>2023-08-03T16:59:48Z</time>
      </trkpt>
      <trkpt lat="48.39067" lon="2.57177">
        <ele>117.1</ele>
      </trkpt>
      <trkpt lat="48.39073" lon="2.57144">
        <ele>117.3</ele>
        <time>2023-08-03T16:58:52Z</time>
      </trkpt>
      <trkpt lat="48.39084" lon="2.57119">
        <ele>119.4</ele>
      </trkpt>
      <trkpt lat="48.39091" lon="2.57076">
        <ele>119.2</ele>
      </trkpt>
      <trkpt lat="48.39081" lon="2.57044">
        <ele>116.4</ele>
      </trkpt>
      <trkpt lat="48.391" lon="2.56973">
        <ele>115.4</ele>
      </trkpt>
      <trkpt lat="48.3912" lon="2.56973">
        <ele>119.7</ele>
      </trkpt>
      <trkpt lat="48.3913" lon="2.56954">
        <ele>119.7</ele>
      </trkpt>
      <trkpt lat="48.39113" lon="2.56917">
        <ele>116.4</ele>
      </trkpt>
      <trkpt lat="48.39124" lon="2.56881">
        <ele>118</ele>
        <time>2023-08-03T16:54:32Z</time>
      </trkpt>
      <trkpt lat="48.39131" lon="2.56825">
        <ele>116.8</ele>
        <time>2023-08-03T16:53:33Z</time>
      </trkpt>
      <trkpt lat="48.39037" lon="2.56793">
        <ele>95</ele>
        <time>2023-08-03T16:50:46Z</time>
      </trkpt>
      <trkpt lat="48.39" lon="2.56668">
        <ele>86</ele>
        <time>2023-08-03T16:48:45Z</time>
      </trkpt>
      <trkpt lat="48.38937" lon="2.56595">
        <ele>85</ele>
        <time>2023-08-03T16:46:59Z</time>
      </trkpt>
      <trkpt lat="48.389" lon="2.56458">
        <ele>84</ele>
        <time>2023-08-03T16:44:48Z</time>
      </trkpt>
      <trkpt lat="48.38886" lon="2.56308">
        <ele>79</ele>
        <time>2023-08-03T16:42:33Z</time>
      </trkpt>
      <trkpt lat="48.38769" lon="2.56196">
        <ele>78</ele>
        <time>2023-08-03T16:39:28Z</time>
      </trkpt>
      <trkpt lat="48.38715" lon="2.56316">
        <ele>81</ele>
        <time>2023-08-03T16:37:20Z</time>
      </trkpt>
      <trkpt lat="48.38624" lon="2.56411">
        <ele>78.1</ele>
        <time>2023-08-03T21:25:48Z</time>
      </trkpt>
    </trkseg>
  </trk>
</gpx>